Time;durP1;ratioP1;P1;durP2;ratioP2;P2;SDS_P1;SDS_P2;PMS_P1;PMS_P2;Temp;Humidity;BMP_temperature;BMP_pressure;BME280_temperature;BME280_humidity;BME280_pressure;Samples;Min_cycle;Max_cycle;Signal;HPM_P1;HPM_P2
2022/08/27 00:01:15;;;;;;;18.50;6.95;;;;;;;27.27;52.60;100137.09;4997474;28;20042;-80
2022/08/27 00:03:59;;;;;;;13.75;6.72;;;;;;;27.04;53.50;100132.53;4989403;28;20065;-81
2022/08/27 00:06:44;;;;;;;12.65;6.70;;;;;;;26.96;53.63;100134.75;5002772;28;20049;-80
2022/08/27 00:09:30;;;;;;;13.45;6.45;;;;;;;26.96;54.17;100131.97;5004971;28;20049;-81
2022/08/27 00:12:15;;;;;;;11.95;6.50;;;;;;;26.98;53.46;100132.28;4997139;28;20053;-81
2022/08/27 00:15:00;;;;;;;16.25;6.97;;;;;;;27.02;53.20;100132.97;4986990;28;20046;-80
2022/08/27 00:17:45;;;;;;;11.98;8.35;;;;;;;26.94;53.43;100136.41;5000133;28;20045;-80
2022/08/27 00:20:30;;;;;;;11.45;8.00;;;;;;;26.90;53.81;100130.16;5000268;28;20049;-80
2022/08/27 00:23:15;;;;;;;12.93;7.85;;;;;;;26.80;54.28;100131.97;4988646;28;20045;-81
2022/08/27 00:26:00;;;;;;;16.70;8.40;;;;;;;26.80;54.19;100134.78;4998840;28;20065;-80
2022/08/27 00:28:46;;;;;;;13.27;5.30;;;;;;;26.84;54.69;100121.50;4998508;28;20053;-79
2022/08/27 00:31:31;;;;;;;8.60;5.57;;;;;;;27.00;54.17;100129.06;4979117;28;20058;-79
2022/08/27 00:34:16;;;;;;;10.68;7.93;;;;;;;27.06;53.88;100128.09;4977147;28;20053;-79
2022/08/27 00:37:01;;;;;;;9.90;6.65;;;;;;;27.10;54.13;100125.97;4977961;28;20053;-78
2022/08/27 00:39:46;;;;;;;11.57;6.63;;;;;;;27.13;54.04;100127.09;4983867;28;20518;-78
2022/08/27 00:42:31;;;;;;;12.82;7.85;;;;;;;26.89;54.22;100120.22;4986347;28;20522;-79
2022/08/27 00:45:20;;;;;;;18.55;8.45;;;;;;;26.76;54.91;100125.72;4986108;28;20065;-79
2022/08/27 00:48:09;;;;;;;6.00;5.15;;;;;;;26.89;54.72;100126.56;4993282;28;20057;-79
2022/08/27 00:50:54;;;;;;;6.13;4.82;;;;;;;26.95;54.42;100119.25;5007892;28;20049;-80
2022/08/27 00:53:39;;;;;;;11.57;6.30;;;;;;;27.03;54.24;100112.22;4997391;28;20407;-80
2022/08/27 00:56:30;;;;;;;12.77;8.23;;;;;;;27.02;54.28;100124.59;4997424;28;20049;-80
2022/08/27 00:59:17;;;;;;;9.88;7.82;;;;;;;27.12;54.04;100123.50;4997422;28;20057;-80
2022/08/27 01:02:20;;;;;;;15.45;8.15;;;;;;;26.92;55.03;100122.13;4997605;28;20049;-80
2022/08/27 01:05:08;;;;;;;11.68;8.40;;;;;;;26.70;55.34;100119.09;4997326;28;20045;-81
2022/08/27 01:08:00;;;;;;;15.40;8.60;;;;;;;26.74;55.57;100125.38;4998031;28;20049;-80
2022/08/27 01:10:47;;;;;;;11.43;5.15;;;;;;;26.92;55.06;100120.09;4996217;28;20053;-79
2022/08/27 01:13:33;;;;;;;8.25;5.88;;;;;;;27.07;54.76;100129.63;4997298;28;20118;-79
2022/08/27 01:16:22;;;;;;;9.75;5.38;;;;;;;27.13;54.63;100127.09;4996627;28;20053;-80
2022/08/27 01:19:23;;;;;;;13.82;8.85;;;;;;;27.00;54.30;100127.06;4994961;28;20049;-80
2022/08/27 01:22:17;;;;;;;9.30;7.82;;;;;;;26.71;55.30;100121.47;4995865;28;20073;-80
2022/08/27 01:25:08;;;;;;;13.48;9.02;;;;;;;26.59;55.50;100124.19;4995608;28;20041;-80
2022/08/27 01:27:57;;;;;;;12.98;8.70;;;;;;;26.47;55.47;100130.47;4999545;28;20053;-81
2022/08/27 01:30:43;;;;;;;15.50;7.90;;;;;;;26.36;55.94;100125.19;4995427;28;20046;-80
2022/08/27 01:33:28;;;;;;;15.23;8.55;;;;;;;26.20;56.66;100120.38;4996758;28;20057;-79
2022/08/27 01:36:13;;;;;;;13.85;8.00;;;;;;;26.28;56.31;100135.72;4996503;28;20058;-80
2022/08/27 01:38:57;;;;;;;11.38;6.15;;;;;;;26.15;56.50;100126.47;4985416;28;20177;-80
2022/08/27 01:41:43;;;;;;;13.45;5.70;;;;;;;26.51;56.11;100117.22;4977491;28;20046;-80
2022/08/27 01:44:27;;;;;;;;;;;;;;;26.78;55.69;100134.41;4976940;28;20054;-80
2022/08/27 01:47:12;;;;;;;9.60;5.93;;;;;;;26.77;55.38;100132.84;4979765;28;19914;-80
2022/08/27 01:49:58;;;;;;;10.40;5.28;;;;;;;26.88;55.11;100133.38;4980409;28;20061;-80
2022/08/27 01:52:44;;;;;;;6.95;4.78;;;;;;;26.97;54.71;100132.75;4996203;28;20054;-80
2022/08/27 01:55:28;;;;;;;11.50;6.03;;;;;;;27.02;54.26;100137.81;4996694;28;20415;-80
2022/08/27 01:58:14;;;;;;;9.13;4.70;;;;;;;27.04;54.21;100146.50;4996535;28;20049;-80
2022/08/27 02:01:07;;;;;;;9.25;4.90;;;;;;;27.08;54.15;100131.22;4987432;28;20046;-80
2022/08/27 02:03:52;;;;;;;7.82;4.68;;;;;;;27.06;54.08;100135.69;4996220;28;20044;-80
2022/08/27 02:06:36;;;;;;;9.45;5.03;;;;;;;27.07;54.28;100140.81;4996749;28;20049;-80
2022/08/27 02:09:21;;;;;;;9.85;4.65;;;;;;;27.06;54.15;100144.06;4995144;28;20581;-80
2022/08/27 02:12:06;;;;;;;11.18;4.53;;;;;;;27.07;54.21;100140.81;4984717;28;20049;-80
2022/08/27 02:14:51;;;;;;;10.60;4.82;;;;;;;27.09;54.23;100141.16;4996159;28;20049;-79
2022/08/27 02:17:36;;;;;;;6.63;4.63;;;;;;;27.06;53.92;100144.06;4997191;28;20053;-80
2022/08/27 02:20:21;;;;;;;9.65;4.90;;;;;;;27.03;54.18;100137.34;4977357;28;20050;-79
2022/08/27 02:23:07;;;;;;;12.60;4.90;;;;;;;27.01;54.12;100141.81;4978147;28;20050;-81
2022/08/27 02:25:52;;;;;;;8.18;5.78;;;;;;;27.01;53.64;100150.97;4981927;28;20404;-80
2022/08/27 02:28:37;;;;;;;7.32;4.80;;;;;;;27.00;54.15;100143.81;4982420;28;20053;-79
2022/08/27 02:31:22;;;;;;;5.53;4.90;;;;;;;26.96;54.31;100142.34;4999723;28;20411;-80
2022/08/27 02:34:09;;;;;;;8.43;4.75;;;;;;;26.96;53.94;100134.75;5000361;28;20049;-80
2022/08/27 02:36:54;;;;;;;14.68;4.75;;;;;;;26.94;54.07;100136.41;5000733;28;20419;-80
2022/08/27 02:39:39;;;;;;;9.52;5.05;;;;;;;26.95;53.94;100140.78;5000485;28;20057;-80
2022/08/27 02:42:26;;;;;;;6.22;4.22;;;;;;;26.96;54.29;100133.97;5000438;28;20396;-80
2022/08/27 02:45:13;;;;;;;7.68;4.07;;;;;;;26.93;53.98;100135.63;5000691;28;20054;-81
2022/08/27 02:47:58;;;;;;;7.50;4.28;;;;;;;26.90;53.95;100139.31;5000082;28;20049;-80
2022/08/27 02:50:44;;;;;;;9.63;4.82;;;;;;;26.90;54.12;100142.09;5000229;28;20053;-80
2022/08/27 02:53:28;;;;;;;9.07;4.45;;;;;;;26.91;53.87;100140.88;4987734;28;20054;-79
2022/08/27 02:56:13;;;;;;;11.23;3.95;;;;;;;26.93;54.03;100138.41;5000519;28;20054;-79
2022/08/27 02:58:58;;;;;;;6.55;4.72;;;;;;;27.01;53.62;100141.81;4987156;28;20061;-80
2022/08/27 03:01:43;;;;;;;9.20;4.78;;;;;;;26.90;53.64;100141.31;4983208;28;20046;-80
2022/08/27 03:04:28;;;;;;;5.53;4.15;;;;;;;26.96;53.95;100140.34;4982896;28;20105;-80
2022/08/27 03:07:13;;;;;;;6.72;4.55;;;;;;;26.94;54.14;100145.56;4980920;28;20416;-80
2022/08/27 03:09:58;;;;;;;7.57;4.60;;;;;;;27.03;53.83;100142.13;4985815;28;20046;-80
2022/08/27 03:12:43;;;;;;;6.13;3.85;;;;;;;27.01;53.76;100134.22;4988004;28;20415;-80
2022/08/27 03:15:28;;;;;;;9.70;3.95;;;;;;;27.01;53.52;100131.44;4999854;28;20053;-79
2022/08/27 03:18:20;;;;;;;7.45;3.45;;;;;;;27.02;53.92;100132.22;5000378;28;20064;-80
2022/08/27 03:21:07;;;;;;;5.68;4.10;;;;;;;26.99;53.49;100133.88;5000034;28;20046;-80
2022/08/27 03:23:52;;;;;;;4.82;3.55;;;;;;;27.01;53.84;100141.81;4999719;28;20419;-79
2022/08/27 03:26:36;;;;;;;6.13;4.32;;;;;;;27.02;53.58;100135.00;4999612;28;20061;-79
2022/08/27 03:29:21;;;;;;;9.52;4.53;;;;;;;27.01;53.58;100125.84;4999428;28;20053;-80
2022/08/27 03:32:07;;;;;;;6.95;4.18;;;;;;;27.03;53.51;100123.38;4985991;28;20440;-80
2022/08/27 03:34:52;;;;;;;6.30;4.35;;;;;;;26.99;53.80;100122.69;4980228;28;20046;-80
2022/08/27 03:37:37;;;;;;;8.60;4.40;;;;;;;27.01;53.64;100119.47;4979947;28;20569;-80
2022/08/27 03:40:22;;;;;;;5.53;4.45;;;;;;;27.02;53.81;100127.38;4980300;28;20057;-79
2022/08/27 03:43:07;;;;;;;8.48;4.20;;;;;;;27.04;53.93;100118.59;4980138;28;20054;-80
2022/08/27 03:45:52;;;;;;;9.05;4.57;;;;;;;27.03;53.76;100115.00;4985648;28;20407;-80
2022/08/27 03:48:38;;;;;;;6.72;4.68;;;;;;;27.04;53.76;100113.78;5004302;28;20044;-80
2022/08/27 03:51:23;;;;;;;8.52;4.30;;;;;;;27.07;53.62;100115.69;5008325;28;20057;-80
2022/08/27 03:54:07;;;;;;;9.70;4.25;;;;;;;27.02;53.47;100115.47;4998214;28;20526;-80
2022/08/27 03:56:52;;;;;;;7.18;4.25;;;;;;;27.01;53.98;100120.28;5007294;28;20049;-81
2022/08/27 03:59:37;;;;;;;7.65;5.07;;;;;;;26.98;53.99;100107.19;4982626;28;20050;-80
2022/08/27 04:02:23;;;;;;;7.13;4.80;;;;;;;27.02;53.50;100110.66;4991680;28;20041;-81
2022/08/27 04:05:10;;;;;;;7.20;4.53;;;;;;;27.06;53.68;100111.34;4998566;28;20045;-80
2022/08/27 04:07:55;;;;;;;9.55;4.97;;;;;;;27.01;53.79;100106.31;4996204;28;20053;-80
2022/08/27 04:10:40;;;;;;;7.63;4.88;;;;;;;27.00;54.02;100101.16;4979396;28;20050;-81
2022/08/27 04:13:26;;;;;;;7.30;5.13;;;;;;;26.99;53.86;100102.38;4995430;28;20421;-80
2022/08/27 04:16:10;;;;;;;9.77;6.05;;;;;;;26.77;53.83;100110.53;4987167;28;20049;-80
2022/08/27 04:18:55;;;;;;;8.15;6.28;;;;;;;26.74;54.25;100106.63;4999063;28;20053;-80
2022/08/27 04:21:41;;;;;;;12.40;6.60;;;;;;;26.67;54.80;100117.97;4998905;28;20114;-80
2022/08/27 04:24:26;;;;;;;7.75;6.50;;;;;;;26.63;54.12;100110.91;4979339;28;20066;-79
2022/08/27 04:27:13;;;;;;;19.52;6.30;;;;;;;26.58;53.96;100108.66;4979317;28;20058;-81
2022/08/27 04:29:59;;;;;;;14.73;6.57;;;;;;;26.61;54.36;100111.38;4983140;28;20053;-81
2022/08/27 04:32:44;;;;;;;13.45;6.45;;;;;;;26.56;54.40;100111.91;4997414;28;20061;-81
2022/08/27 04:35:29;;;;;;;18.98;6.95;;;;;;;26.47;55.25;100108.16;5006014;28;20053;-79
2022/08/27 04:38:14;;;;;;;15.48;7.45;;;;;;;26.28;55.78;100107.06;5005788;28;20065;-81
2022/08/27 04:41:20;;;;;;;16.20;7.78;;;;;;;26.34;55.57;100110.88;5012723;28;20057;-81
2022/08/27 04:44:08;;;;;;;14.25;7.40;;;;;;;26.37;56.04;100129.50;4997527;28;20057;-81
2022/08/27 04:46:56;;;;;;;15.00;7.15;;;;;;;26.37;55.88;100121.94;5003531;28;20044;-81
2022/08/27 04:49:42;;;;;;;12.63;6.97;;;;;;;26.39;55.80;100132.66;5003680;28;20045;-80
2022/08/27 04:52:27;;;;;;;12.60;6.20;;;;;;;26.32;56.57;100130.81;4992689;28;20053;-80
2022/08/27 04:55:11;;;;;;;14.35;6.90;;;;;;;26.30;56.42;100126.94;5016780;28;20554;-80
2022/08/27 04:57:56;;;;;;;;;;;;;;;26.47;56.21;100130.47;5017788;28;20052;-80
2022/08/27 05:00:47;;;;;;;35.50;7.95;;;;;;;26.46;56.32;100126.13;5017466;28;19913;-80
2022/08/27 05:03:32;;;;;;;11.07;6.68;;;;;;;26.48;56.48;100126.47;5004889;28;20061;-81
2022/08/27 05:06:17;;;;;;;11.60;7.22;;;;;;;26.37;57.55;100130.31;5000989;28;20053;-80
2022/08/27 05:09:04;;;;;;;18.67;8.63;;;;;;;26.31;57.42;100123.69;5008401;28;20053;-80
2022/08/27 05:11:50;;;;;;;14.82;7.55;;;;;;;26.30;57.09;100124.13;5014022;28;20718;-80
2022/08/27 05:14:35;;;;;;;10.88;7.60;;;;;;;26.31;56.74;100129.25;4997338;28;20050;-79
2022/08/27 05:17:20;;;;;;;13.80;8.25;;;;;;;26.22;56.94;100129.09;4998131;28;20050;-79
2022/08/27 05:20:06;;;;;;;12.07;6.40;;;;;;;26.35;57.71;100135.53;4997808;28;20053;-79
2022/08/27 05:22:50;;;;;;;13.02;4.78;;;;;;;26.59;56.08;100143.69;4997101;28;20403;-78
2022/08/27 05:25:41;;;;;;;7.63;5.60;;;;;;;26.75;55.87;100154.84;4998315;28;20049;-78
2022/08/27 05:28:28;;;;;;;15.60;5.93;;;;;;;26.80;55.79;100157.09;4997286;28;20069;-80
2022/08/27 07:48:28;;;;;;;3.47;2.85;;;;;;;29.87;46.71;100214.72;5163381;23;20057;-80
2022/08/27 07:51:16;;;;;;;5.93;3.13;;;;;;;28.99;49.44;100224.34;4888354;29;20056;-79
2022/08/27 07:54:00;;;;;;;6.07;3.33;;;;;;;28.30;51.52;100224.19;4884301;29;20429;-79
2022/08/27 07:56:46;;;;;;;8.93;3.83;;;;;;;27.62;53.81;100222.69;4895737;29;20056;-78
2022/08/27 07:59:30;;;;;;;7.55;3.10;;;;;;;26.84;56.38;100216.38;4889674;29;20056;-81
2022/08/27 08:02:15;;;;;;;6.20;3.08;;;;;;;26.37;58.33;100213.16;4900597;29;20126;-81
2022/08/27 08:05:00;;;;;;;7.45;3.17;;;;;;;26.19;58.85;100205.22;4884132;29;20065;-80
2022/08/27 08:07:45;;;;;;;;;;;;;;;25.96;59.33;100213.69;4886312;29;20064;-80
2022/08/27 08:10:30;;;;;;;7.95;3.30;;;;;;;25.75;60.23;100220.50;4888993;29;20400;-80
2022/08/27 08:13:16;;;;;;;4.43;2.90;;;;;;;25.55;60.72;100228.88;4883513;29;20441;-81
2022/08/27 08:16:01;;;;;;;3.13;2.47;;;;;;;25.57;60.57;100241.59;4883081;29;20048;-80
2022/08/27 08:18:46;;;;;;;4.28;2.53;;;;;;;25.49;61.27;100241.72;4889946;29;20062;-81
2022/08/27 08:21:31;;;;;;;7.88;2.80;;;;;;;25.49;61.23;100240.94;4877499;29;20056;-80
2022/08/27 08:24:17;;;;;;;5.28;2.85;;;;;;;25.47;61.27;100254.50;4896949;29;20539;-79
2022/08/27 08:27:02;;;;;;;3.45;2.50;;;;;;;25.40;60.96;100249.84;4907236;29;20060;-79
2022/08/27 08:29:48;;;;;;;2.97;2.33;;;;;;;25.31;61.35;100255.19;4905125;29;20064;-80
2022/08/27 08:32:32;;;;;;;4.80;2.63;;;;;;;25.30;61.65;100263.97;4904994;29;20056;-79
2022/08/27 08:35:17;;;;;;;4.32;2.65;;;;;;;25.35;61.07;100275.38;4891739;29;20051;-79
2022/08/27 08:38:02;;;;;;;4.57;2.90;;;;;;;25.34;61.27;100279.41;4886002;29;20072;-79
2022/08/27 08:40:49;;;;;;;;;;;;;;;25.43;60.91;100298.34;4884650;29;20068;-80
2022/08/27 08:43:40;;;;;;;4.90;2.65;;;;;;;25.46;60.92;100303.81;4890944;29;20496;-80
2022/08/27 08:46:34;;;;;;;7.35;3.22;;;;;;;25.50;60.97;100298.97;4878048;29;20065;-79
2022/08/27 08:49:25;;;;;;;6.80;2.58;;;;;;;25.59;60.60;100300.44;4883376;29;20056;-79
2022/08/27 08:52:17;;;;;;;4.47;2.45;;;;;;;25.53;60.43;100314.84;4888910;29;20064;-78
2022/08/27 08:55:07;;;;;;;12.60;2.67;;;;;;;25.38;61.29;100313.53;4887893;29;20047;-81
2022/08/27 08:58:40;;;;;;;6.28;2.67;;;;;;;25.21;61.71;100316.63;4891199;29;20539;-80
2022/08/27 09:01:26;;;;;;;6.05;1.98;;;;;;;25.13;61.82;100325.13;4885349;29;20085;-80
2022/08/27 09:04:12;;;;;;;4.45;2.25;;;;;;;24.96;61.84;100333.75;4904591;29;20061;-80
2022/08/27 09:07:11;;;;;;;8.13;2.13;;;;;;;24.87;61.57;100336.25;4889940;29;20056;-80
2022/08/27 09:10:18;;;;;;;3.92;2.25;;;;;;;24.82;61.48;100333.94;4872736;29;20056;-81
2022/08/27 09:13:06;;;;;;;4.30;2.78;;;;;;;24.83;62.09;100339.09;4879704;29;20052;-80
2022/08/27 09:15:55;;;;;;;6.32;2.30;;;;;;;24.81;61.92;100357.41;4893807;29;20564;-79
2022/08/27 09:18:40;;;;;;;4.63;2.47;;;;;;;24.68;62.13;100376.69;4894815;29;20060;-82
2022/08/27 09:21:44;;;;;;;7.38;2.45;;;;;;;24.66;62.80;100374.31;4894693;29;20056;-81
2022/08/27 09:24:41;;;;;;;5.43;2.50;;;;;;;24.65;62.07;100378.28;4898752;29;20051;-82
2022/08/27 09:27:26;;;;;;;4.28;2.85;;;;;;;24.78;60.65;100381.28;4905898;29;20134;-82
2022/08/27 09:30:27;;;;;;;3.38;2.47;;;;;;;24.82;60.04;100375.66;4905445;29;20051;-82
2022/08/27 09:33:12;;;;;;;4.18;2.60;;;;;;;24.70;60.28;100375.03;4913289;29;20048;-82
2022/08/27 09:36:01;;;;;;;6.57;2.50;;;;;;;24.63;61.59;100374.38;4910518;29;20051;-82
2022/08/27 09:38:57;;;;;;;4.00;2.40;;;;;;;24.52;61.67;100393.19;4891995;29;20047;-81
2022/08/27 09:41:45;;;;;;;4.07;2.33;;;;;;;24.49;62.07;100408.69;4891930;29;20063;-82
2022/08/27 09:44:31;;;;;;;5.22;2.90;;;;;;;24.54;60.86;100413.78;4887708;29;20536;-83
2022/08/27 09:47:16;;;;;;;5.72;2.83;;;;;;;24.49;60.53;100408.69;4888079;29;20056;-82
2022/08/27 09:50:05;;;;;;;8.63;2.70;;;;;;;23.33;69.58;100402.34;4890119;29;20410;-81
2022/08/27 09:52:54;;;;;;;56.72;4.82;;;;;;;19.69;93.27;100404.13;4895371;29;20052;-82
2022/08/27 10:52:50;;;;;;;11.07;4.47;;;;;;;20.83;100.00;100370.28;4886742;29;20060;-84
2022/08/27 10:55:40;;;;;;;11.07;5.78;;;;;;;20.71;100.00;100378.19;4904058;29;20041;-84
2022/08/27 10:58:39;;;;;;;9.93;4.85;;;;;;;20.59;100.00;100386.81;4902375;29;20409;-83
2022/08/27 11:01:33;;;;;;;8.75;4.53;;;;;;;20.87;100.00;100382.16;4890183;29;20048;-83
2022/08/27 11:04:27;;;;;;;8.07;3.55;;;;;;;20.89;100.00;100385.31;4880983;29;20060;-84
2022/08/27 11:07:21;;;;;;;8.57;3.90;;;;;;;21.21;100.00;100388.13;4887528;29;20525;-83
2022/08/27 11:10:18;;;;;;;9.68;3.83;;;;;;;21.20;100.00;100400.38;4882914;29;20055;-84
2022/08/27 11:13:09;;;;;;;6.70;4.45;;;;;;;21.11;99.72;100407.47;4891219;29;20052;-84
2022/08/27 11:15:57;;;;;;;6.90;4.35;;;;;;;21.33;99.21;100400.78;4900615;29;20048;-84
2022/08/27 11:18:51;;;;;;;5.28;4.07;;;;;;;21.51;99.67;100407.09;4892901;29;20056;-84
2022/08/27 11:22:05;;;;;;;5.55;3.78;;;;;;;21.59;98.32;100413.41;4876015;29;20060;-83
2022/08/27 11:24:51;;;;;;;4.68;3.15;;;;;;;21.67;97.36;100409.44;4894724;29;20048;-84
2022/08/27 11:27:38;;;;;;;7.28;4.00;;;;;;;21.73;96.65;100400.34;4888402;29;20048;-81
2022/08/27 11:30:45;;;;;;;6.03;3.72;;;;;;;21.71;95.68;100408.25;4877680;29;20052;-84
2022/08/27 11:34:04;;;;;;;5.13;3.45;;;;;;;21.43;89.91;100383.41;4891132;29;20060;-84
2022/08/27 11:37:15;;;;;;;4.65;3.20;;;;;;;21.61;91.98;100400.75;4893508;29;20049;-83
2022/08/27 11:40:19;;;;;;;5.07;3.17;;;;;;;21.83;92.98;100417.34;4885197;29;20049;-84
2022/08/27 11:43:09;;;;;;;7.18;3.42;;;;;;;22.04;91.86;100417.31;4886443;29;20056;-83
2022/08/27 11:45:57;;;;;;;6.28;3.47;;;;;;;22.08;89.18;100404.25;4878266;29;20044;-83
2022/08/27 11:49:01;;;;;;;4.75;3.25;;;;;;;22.03;87.88;100388.03;4885521;29;20513;-84
2022/08/27 11:51:56;;;;;;;15.40;4.07;;;;;;;22.15;87.20;100377.31;4891799;29;20048;-84
2022/08/27 11:54:44;;;;;;;3.88;2.78;;;;;;;22.33;85.76;100379.22;4884752;29;20048;-84
2022/08/27 11:57:35;;;;;;;4.68;2.88;;;;;;;22.37;85.07;100371.66;4882889;29;20068;-84
2022/08/27 12:00:29;;;;;;;4.32;3.40;;;;;;;22.33;85.13;100352.31;4882533;29;20052;-84
2022/08/27 12:03:20;;;;;;;6.13;3.70;;;;;;;22.37;84.42;100343.97;4888091;29;20048;-84
2022/08/27 12:06:23;;;;;;;6.47;3.30;;;;;;;22.39;84.02;100347.91;4907232;29;20300;-84
2022/08/27 12:09:19;;;;;;;4.57;3.30;;;;;;;22.45;81.93;100342.75;4883691;29;20060;-83
2022/08/27 12:12:22;;;;;;;6.88;3.42;;;;;;;22.44;83.44;100349.47;4887538;29;20060;-84
2022/08/27 12:15:17;;;;;;;7.90;3.20;;;;;;;22.42;85.18;100354.63;4890586;29;20047;-85
2022/08/27 12:18:13;;;;;;;6.20;3.90;;;;;;;22.18;83.84;100359.09;4880682;29;20064;-85
2022/08/27 12:21:45;;;;;;;9.00;3.67;;;;;;;22.23;84.88;100352.34;4890818;29;20048;-84
2022/08/27 12:24:50;;;;;;;5.30;3.15;;;;;;;22.32;84.89;100359.03;4905239;29;20052;-84
2022/08/27 12:27:35;;;;;;;5.60;2.92;;;;;;;22.35;83.86;100368.53;4889794;29;20051;-85
2022/08/27 12:30:37;;;;;;;5.82;2.15;;;;;;;22.37;84.30;100372.47;4889407;29;20052;-85
2022/08/27 12:33:33;;;;;;;3.22;2.45;;;;;;;22.45;83.19;100368.44;4885804;29;20052;-85
2022/08/27 12:36:24;;;;;;;3.97;2.30;;;;;;;22.43;83.94;100364.53;4887732;29;20051;-84
2022/08/27 12:39:23;;;;;;;3.80;2.38;;;;;;;22.61;81.26;100351.34;4882755;29;20055;-84
2022/08/27 12:42:20;;;;;;;2.55;1.63;;;;;;;22.53;80.50;100358.91;4896722;29;20047;-85
2022/08/27 12:45:06;;;;;;;5.88;2.38;;;;;;;22.54;80.59;100359.72;4874642;29;20067;-83
2022/08/27 12:47:53;;;;;;;3.58;2.00;;;;;;;22.61;80.57;100359.66;4887210;29;20052;-83
2022/08/27 12:50:39;;;;;;;7.35;2.30;;;;;;;22.59;80.40;100350.97;4895212;29;20524;-84
2022/08/27 12:53:38;;;;;;;5.68;2.92;;;;;;;22.69;79.40;100350.13;4887417;29;20048;-84
2022/08/27 12:56:48;;;;;;;4.30;2.00;;;;;;;22.73;78.45;100350.09;4883262;29;20048;-82
2022/08/27 13:00:04;;;;;;;4.57;1.95;;;;;;;22.56;79.96;100335.13;4895590;29;20055;-82
2022/08/27 13:03:19;;;;;;;5.63;1.98;;;;;;;22.56;79.79;100329.59;4900623;29;20056;-82
2022/08/27 13:06:20;;;;;;;5.13;1.73;;;;;;;22.68;79.25;100329.13;4874624;29;20056;-83
2022/08/27 13:09:07;;;;;;;2.63;1.67;;;;;;;22.72;78.92;100323.56;4874911;29;20060;-82
2022/08/27 13:11:55;;;;;;;3.92;2.47;;;;;;;22.86;77.68;100332.56;4875777;29;20064;-82
2022/08/27 13:14:40;;;;;;;7.38;2.10;;;;;;;22.93;77.36;100324.22;4880495;29;20060;-82
2022/08/27 13:17:37;;;;;;;7.43;1.83;;;;;;;23.05;77.77;100317.38;4879050;29;20052;-82
2022/08/27 13:20:24;;;;;;;8.98;2.15;;;;;;;23.06;77.92;100312.63;4874716;29;20422;-84
2022/08/27 13:23:15;;;;;;;4.53;2.40;;;;;;;23.03;77.05;100301.16;4879923;29;20053;-82
2022/08/27 13:26:07;;;;;;;3.95;1.85;;;;;;;23.08;77.46;100296.34;4880647;29;20064;-83
2022/08/27 13:28:52;;;;;;;3.53;2.75;;;;;;;23.01;77.53;100299.97;4891068;29;20048;-83
2022/08/27 13:31:37;;;;;;;2.75;1.60;;;;;;;23.17;76.54;100289.13;4892641;29;20052;-82
2022/08/27 13:34:26;;;;;;;4.93;2.63;;;;;;;23.10;75.78;100286.44;4886853;29;20052;-83
2022/08/27 13:37:27;;;;;;;7.20;2.85;;;;;;;22.86;77.19;100270.78;4885480;29;20061;-81
2022/08/27 13:40:27;;;;;;;8.32;2.50;;;;;;;22.91;78.10;100271.13;4875636;29;20064;-82
2022/08/27 13:43:13;;;;;;;6.38;2.30;;;;;;;23.15;77.07;100268.56;4889137;29;20044;-83
2022/08/27 13:45:59;;;;;;;6.22;2.70;;;;;;;23.20;77.19;100273.66;4888234;29;20052;-83
2022/08/27 13:48:48;;;;;;;3.88;2.72;;;;;;;23.21;76.83;100269.69;4889367;29;20052;-83
2022/08/27 13:51:34;;;;;;;2.65;2.20;;;;;;;23.31;76.08;100269.59;4893462;29;20524;-83
2022/08/27 13:54:20;;;;;;;5.28;2.30;;;;;;;23.50;74.59;100273.75;4894584;29;20052;-83
2022/08/27 13:57:08;;;;;;;3.90;2.22;;;;;;;23.61;74.20;100257.78;4884536;29;20051;-83
2022/08/27 13:59:53;;;;;;;3.83;2.10;;;;;;;23.47;74.57;100251.59;4896944;29;20053;-84
2022/08/27 14:02:38;;;;;;;;;;;;;;;23.40;75.87;100249.66;4911104;29;20055;-83
2022/08/27 14:05:22;;;;;;;3.33;2.35;;;;;;;23.35;75.58;100247.34;4892803;29;19916;-83
2022/08/27 14:08:13;;;;;;;;;;;;;;;23.42;75.70;100242.47;4889696;29;20060;-83
2022/08/27 14:11:00;;;;;;;5.05;2.42;;;;;;;23.37;75.67;100239.38;4892965;29;19915;-83
2022/08/27 14:13:47;;;;;;;3.33;2.05;;;;;;;23.44;75.71;100245.63;4894032;29;20044;-83
2022/08/27 14:16:34;;;;;;;3.05;2.30;;;;;;;23.53;75.07;100249.94;4891255;29;20051;-83
2022/08/27 14:19:31;;;;;;;5.82;2.42;;;;;;;23.58;75.02;100247.47;4899134;29;20048;-83
2022/08/27 14:22:16;;;;;;;3.53;2.40;;;;;;;23.65;75.08;100244.63;4888221;29;20529;-82
2022/08/27 14:25:00;;;;;;;3.30;2.38;;;;;;;23.67;74.67;100247.00;4897503;29;20541;-83
2022/08/27 14:27:46;;;;;;;3.67;2.13;;;;;;;23.64;73.96;100251.38;4898152;29;20521;-83
2022/08/27 14:30:31;;;;;;;5.65;2.45;;;;;;;23.71;73.42;100253.28;4896745;29;20056;-83
2022/08/27 14:33:16;;;;;;;3.42;2.40;;;;;;;23.82;73.20;100259.50;4891528;29;20052;-82
2022/08/27 14:36:01;;;;;;;5.60;2.80;;;;;;;23.76;72.74;100261.94;4891782;29;20064;-83
2022/08/27 14:38:48;;;;;;;8.50;2.70;;;;;;;23.83;72.63;100267.41;4897224;29;20048;-83
2022/08/27 14:41:34;;;;;;;3.45;2.67;;;;;;;24.47;68.16;100266.56;4884099;29;20052;-79
2022/08/27 14:44:19;;;;;;;3.33;2.17;;;;;;;24.50;65.44;100270.47;4889720;29;20056;-78
2022/08/27 14:47:04;;;;;;;;;;;;;;;23.78;69.70;100286.50;4889088;29;20118;-79
2022/08/27 14:49:49;;;;;;;5.30;2.70;;;;;;;23.34;72.14;100290.16;4899125;29;19916;-79
2022/08/27 14:52:34;;;;;;;;;;;;;;;23.28;73.14;100291.78;4885483;29;20044;-78
2022/08/27 14:55:18;;;;;;;4.93;3.28;;;;;;;23.16;75.27;100289.56;4891565;29;19920;-79
2022/08/27 14:58:04;;;;;;;8.10;5.47;;;;;;;23.32;73.74;100273.91;4890883;29;20048;-78
2022/08/27 15:00:50;;;;;;;5.03;3.60;;;;;;;23.96;70.30;100277.97;4894728;29;20056;-78
2022/08/27 15:03:38;;;;;;;5.25;3.65;;;;;;;24.25;68.38;100276.41;4897984;29;20044;-79
2022/08/27 15:06:24;;;;;;;5.05;3.30;;;;;;;24.39;67.86;100276.19;4894722;29;20054;-79
2022/08/27 15:09:08;;;;;;;4.50;3.53;;;;;;;24.46;66.85;100276.09;4873532;29;20069;-79
2022/08/27 15:11:55;;;;;;;5.32;4.03;;;;;;;24.09;68.06;100278.97;4900529;29;20055;-79
2022/08/27 15:14:42;;;;;;;6.82;3.72;;;;;;;24.32;66.85;100275.53;4910353;29;20067;-80
2022/08/27 15:17:26;;;;;;;5.65;3.47;;;;;;;24.61;66.14;100280.22;4898529;29;20093;-79
2022/08/27 15:20:13;;;;;;;10.32;2.72;;;;;;;24.66;64.91;100278.97;4893282;29;20056;-80
2022/08/27 15:22:58;;;;;;;13.25;2.65;;;;;;;25.01;64.36;100266.47;4901952;29;20047;-79
2022/08/27 15:25:44;;;;;;;4.97;2.40;;;;;;;25.26;63.98;100275.16;4895472;29;20048;-80
2022/08/27 15:28:29;;;;;;;12.63;2.55;;;;;;;25.37;63.60;100270.19;4904584;29;20052;-79
2022/08/27 15:31:14;;;;;;;8.75;2.30;;;;;;;25.62;62.86;100271.72;4892829;29;20052;-79
2022/08/27 15:33:59;;;;;;;5.05;3.50;;;;;;;25.33;61.76;100268.69;4889535;29;20056;-79
2022/08/27 15:36:44;;;;;;;5.40;3.50;;;;;;;25.02;63.31;100268.06;4889567;29;20052;-78
2022/08/27 15:39:29;;;;;;;5.20;3.83;;;;;;;24.74;64.10;100263.72;4890669;29;20052;-79
2022/08/27 15:42:14;;;;;;;8.43;2.88;;;;;;;24.94;64.49;100258.28;4887241;29;20051;-81
2022/08/27 15:44:59;;;;;;;24.38;3.60;;;;;;;25.72;62.41;100259.59;4886166;29;20056;-80
2022/08/27 15:47:44;;;;;;;22.70;3.45;;;;;;;26.08;59.92;100260.41;4872186;29;20064;-77
2022/08/27 15:50:30;;;;;;;10.88;3.10;;;;;;;26.45;60.31;100255.63;4896863;29;20413;-80
2022/08/27 15:53:24;;;;;;;8.02;2.55;;;;;;;26.80;59.11;100254.75;4889022;29;20076;-80
2022/08/27 15:56:09;;;;;;;21.98;3.85;;;;;;;26.62;59.03;100251.59;4886364;29;20170;-80
2022/08/27 15:58:53;;;;;;;6.78;2.28;;;;;;;26.54;59.83;100253.00;4883952;29;20052;-81
2022/08/27 16:01:38;;;;;;;15.35;2.42;;;;;;;26.30;60.13;100252.38;4882584;29;20048;-80
2022/08/27 16:04:23;;;;;;;5.50;2.30;;;;;;;26.60;58.92;100252.06;4879157;29;20415;-80
2022/08/27 16:07:08;;;;;;;5.30;2.53;;;;;;;26.51;59.21;100251.09;4874908;29;20419;-80
2022/08/27 16:09:53;;;;;;;4.57;3.13;;;;;;;26.28;58.06;100252.81;4884581;29;20415;-83
2022/08/27 16:12:38;;;;;;;8.52;2.92;;;;;;;25.40;60.12;100246.25;4886689;29;20055;-82
2022/08/27 16:15:23;;;;;;;5.63;3.10;;;;;;;25.14;61.40;100239.63;4890722;29;20064;-82
2022/08/27 16:18:09;;;;;;;5.97;3.33;;;;;;;25.14;61.42;100247.97;4867510;29;20060;-81